LLBG

Ben Gurion International Airport

Tel Aviv, Israel
TAF LLBG 201703Z 2018/2118 22005KT 9999 FEW015 SCT020 BECMG 2019/2021 17004KT TEMPO 2100/2105 BKN018 BECMG 2106/2108 24013KT SCT025 BECMG 2115/2117 24006KT TX24/2111Z TN16/2104Z
Issued Valid From Valid To
Apr-20 @ 17:03 UTC
(2 hours ago)
Apr-20 @ 18:00 UTC
(37 minutes ago)
Apr-21 @ 18:00 UTC
(in 23 hours)
Apr-20 @ 18:00 to Apr-20 @ 19:00
TAF LLBG 201703Z 2018/2118 22005KT 9999 FEW015 SCT020
Wind Visibility Clouds
220° at 5 knots 10,000+ meters
  • Few at 1,500' AGL
  • Scattered at 2,000' AGL
Becoming Apr-20 @ 19:00 to Apr-21 @ 06:00
BECMG 2019/2021 17004KT
Wind Visibility Clouds
170° at 4 knots 10,000+ meters
  • Few at 1,500' AGL
  • Scattered at 2,000' AGL
Temporary Apr-21 @ 00:00 to Apr-21 @ 05:00
TEMPO 2100/2105 BKN018
Clouds
  • Broken at 1,800' AGL
Becoming Apr-21 @ 06:00 to Apr-21 @ 15:00
BECMG 2106/2108 24013KT SCT025
Wind Visibility Clouds
240° at 13 knots 10,000+ meters
  • Scattered at 2,500' AGL
Becoming Apr-21 @ 15:00 to Apr-21 @ 18:00
BECMG 2115/2117 24006KT TX24/2111Z TN16/2104Z
Wind Visibility Clouds
240° at 6 knots 10,000+ meters
  • Scattered at 2,500' AGL
TAF LLBG 201703Z 2018/2118 22005KT 9999 FEW015 SCT020 BECMG 2019/2021 17004KT TEMPO 2100/2105 BKN018 BECMG 2106/2108 24013KT SCT025 BECMG 2115/2117 24006KT TX24/2111Z TN16/2104Z
Issued Apr-20 @ 17:03 UTC
(2 hours ago)
Valid From Apr-20 @ 18:00 UTC
(37 minutes ago)
Valid To Apr-21 @ 18:00 UTC
(in 23 hours)
Apr-20 @ 18:00 - Apr-20 @ 19:00
Wind Visibility
220° at 5 knots 10,000+ meters
Clouds
  • Few at 1,500' AGL
  • Scattered at 2,000' AGL
Becoming Apr-20 @ 19:00 - Apr-21 @ 06:00
Wind Visibility
170° at 4 knots 10,000+ meters
Clouds
  • Few at 1,500' AGL
  • Scattered at 2,000' AGL
Temporary Apr-21 @ 00:00 - Apr-21 @ 05:00
Clouds
  • Broken at 1,800' AGL
Becoming Apr-21 @ 06:00 - Apr-21 @ 15:00
Wind Visibility
240° at 13 knots 10,000+ meters
Clouds
  • Scattered at 2,500' AGL
Becoming Apr-21 @ 15:00 - Apr-21 @ 18:00
Wind Visibility
240° at 6 knots 10,000+ meters
Clouds
  • Scattered at 2,500' AGL